Terminal Aerodrome Forecast
Issued by NWS Riverton, WY

Home | Current Version | Previous Version | Text Only | Print | Product List | Glossary On
Versions: 1 2 3 4 5 6 7 8 9 10 11 12 13 14 15 16 17 18 19 20 21 22 23 24
000
FTUS45 KRIW 242321
TAFRIW
TAF
KRIW 242321Z 2500/2524 10007KT 5SM -RASN SCT007 OVC014
      TEMPO 2500/2502 OVC005
     FM250200 36011KT 6SM -RA OVC011
     FM250500 32008KT P6SM -RA OVC016
     FM251800 03005KT P6SM VCSH OVC040=

USA.gov is the U.S. government's official web portal to all federal, state and local government web resources and services.